Terminal Aerodrome Forecast
Issued by NWS

Home | Current Version | Previous Version | Text Only | Print | Product List | Glossary Off
Versions: 1 2 3 4 5 6 7 8 9 10 11 12 13 14 15 16 17 18 19 20 21 22 23 24 25 26 27 28 29 30 31 32 33 34 35

000
FTUS43 KBIS 232218 AAD
TAFDIK
TAF AMD
KDIK 232218Z 2322/2418 05012KT 3SM BR OVC003
      TEMPO 2322/2324 2SM -SN
     FM240300 05009KT 3SM BR OVC005
     FM240800 04007KT 4SM BR BKN008
     FM241200 05005KT 3SM BR SCT008
     FM241500 05004KT 2SM BR BKN015
     FM241700 03005KT 4SM BR SCT090=

USA.gov is the U.S. government's official web portal to all federal, state and local government web resources and services.